Birds Landing, California
Current Conditions -  °F | °C
As of 6:58 PM on Sunday 23 Nov 2014 (Local Time) from KSUU Reporting Station
Broken Clouds Broken Clouds  
Wind Chill: 50°   Ceiling: 12000
Heat Index: 50°   Visibility: 10mi
Dew Point: 49°   Wind: 3mph
Humidity: 99%   Direction: 40°NE
Pressure: 30.29"   Gusts: NA
Location:  38.13°N, 121.87°W
Report Text: KSUU 240258Z AUTO 04003KT 10SM BKN120 10/10 A3029 RMK AO2 SLP264 T00980097 53005 $
Loading
Personal Weather Stations






























Interactive Weather Map New forecast layout! Learn more

10-Day Weather Forecast

Advertisements
Track Severe Weather on mobile